sensor_id;sensor_type;location;lat;lon;timestamp;temperature;humidity
52189;DHT22;38162;45.926;13.608;2023-04-24T00:00:24;16.00;96.10
52189;DHT22;38162;45.926;13.608;2023-04-24T00:02:50;16.00;96.00
52189;DHT22;38162;45.926;13.608;2023-04-24T00:05:16;15.90;96.00
52189;DHT22;38162;45.926;13.608;2023-04-24T00:07:44;15.90;96.10
52189;DHT22;38162;45.926;13.608;2023-04-24T00:10:11;15.90;95.70
52189;DHT22;38162;45.926;13.608;2023-04-24T00:12:37;15.90;95.40
52189;DHT22;38162;45.926;13.608;2023-04-24T00:15:04;15.80;95.50
52189;DHT22;38162;45.926;13.608;2023-04-24T00:17:30;15.80;95.10
52189;DHT22;38162;45.926;13.608;2023-04-24T00:19:57;15.80;95.20
52189;DHT22;38162;45.926;13.608;2023-04-24T00:22:27;15.70;94.90
52189;DHT22;38162;45.926;13.608;2023-04-24T00:24:53;15.70;94.80
52189;DHT22;38162;45.926;13.608;2023-04-24T00:27:19;15.80;94.70
52189;DHT22;38162;45.926;13.608;2023-04-24T00:29:45;15.70;94.60
52189;DHT22;38162;45.926;13.608;2023-04-24T00:32:11;15.80;94.20
52189;DHT22;38162;45.926;13.608;2023-04-24T00:34:37;15.70;93.70
52189;DHT22;38162;45.926;13.608;2023-04-24T00:37:03;15.70;93.70
52189;DHT22;38162;45.926;13.608;2023-04-24T00:39:28;15.80;93.50
52189;DHT22;38162;45.926;13.608;2023-04-24T00:41:54;15.70;93.60
52189;DHT22;38162;45.926;13.608;2023-04-24T00:44:20;15.70;93.30
52189;DHT22;38162;45.926;13.608;2023-04-24T00:46:46;15.80;93.20
52189;DHT22;38162;45.926;13.608;2023-04-24T00:49:18;15.70;93.00
52189;DHT22;38162;45.926;13.608;2023-04-24T00:51:44;15.70;93.00
52189;DHT22;38162;45.926;13.608;2023-04-24T00:54:12;15.70;93.00
52189;DHT22;38162;45.926;13.608;2023-04-24T00:56:38;15.70;93.10
52189;DHT22;38162;45.926;13.608;2023-04-24T00:59:03;15.70;93.10
52189;DHT22;38162;45.926;13.608;2023-04-24T01:01:30;15.70;93.00
52189;DHT22;38162;45.926;13.608;2023-04-24T01:03:56;15.70;93.10
52189;DHT22;38162;45.926;13.608;2023-04-24T01:06:23;15.70;92.90
52189;DHT22;38162;45.926;13.608;2023-04-24T01:08:51;15.70;93.00
52189;DHT22;38162;45.926;13.608;2023-04-24T01:11:17;15.70;92.80
52189;DHT22;38162;45.926;13.608;2023-04-24T01:13:43;15.70;92.60
52189;DHT22;38162;45.926;13.608;2023-04-24T01:16:10;15.70;91.80
52189;DHT22;38162;45.926;13.608;2023-04-24T01:18:36;15.80;91.30
52189;DHT22;38162;45.926;13.608;2023-04-24T01:21:04;15.80;91.00
52189;DHT22;38162;45.926;13.608;2023-04-24T01:23:30;15.80;91.00
52189;DHT22;38162;45.926;13.608;2023-04-24T01:25:56;15.90;90.90
52189;DHT22;38162;45.926;13.608;2023-04-24T01:28:22;15.90;91.00
52189;DHT22;38162;45.926;13.608;2023-04-24T01:30:48;15.90;91.30
52189;DHT22;38162;45.926;13.608;2023-04-24T01:33:14;15.90;91.40
52189;DHT22;38162;45.926;13.608;2023-04-24T01:35:40;15.90;91.80
52189;DHT22;38162;45.926;13.608;2023-04-24T01:38:06;15.90;91.50
52189;DHT22;38162;45.926;13.608;2023-04-24T01:40:32;15.90;91.40
52189;DHT22;38162;45.926;13.608;2023-04-24T01:42:58;15.90;91.20
52189;DHT22;38162;45.926;13.608;2023-04-24T01:45:24;15.90;91.20
52189;DHT22;38162;45.926;13.608;2023-04-24T01:47:50;15.90;91.10
52189;DHT22;38162;45.926;13.608;2023-04-24T01:50:16;16.00;91.20
52189;DHT22;38162;45.926;13.608;2023-04-24T01:52:42;15.90;91.60
52189;DHT22;38162;45.926;13.608;2023-04-24T01:55:08;15.90;91.70
52189;DHT22;38162;45.926;13.608;2023-04-24T01:57:35;15.90;92.00
52189;DHT22;38162;45.926;13.608;2023-04-24T02:00:01;15.90;91.90
52189;DHT22;38162;45.926;13.608;2023-04-24T02:02:29;15.90;92.00
52189;DHT22;38162;45.926;13.608;2023-04-24T02:04:56;15.90;92.20
52189;DHT22;38162;45.926;13.608;2023-04-24T02:07:22;15.90;92.00
52189;DHT22;38162;45.926;13.608;2023-04-24T02:09:48;15.90;91.80
52189;DHT22;38162;45.926;13.608;2023-04-24T02:12:14;15.90;91.80
52189;DHT22;38162;45.926;13.608;2023-04-24T02:14:40;15.90;91.90
52189;DHT22;38162;45.926;13.608;2023-04-24T02:17:07;15.90;92.00
52189;DHT22;38162;45.926;13.608;2023-04-24T02:19:33;15.90;92.20
52189;DHT22;38162;45.926;13.608;2023-04-24T02:21:59;15.80;92.60
52189;DHT22;38162;45.926;13.608;2023-04-24T02:24:25;15.70;92.50
52189;DHT22;38162;45.926;13.608;2023-04-24T02:26:50;15.70;92.50
52189;DHT22;38162;45.926;13.608;2023-04-24T02:29:16;15.80;92.50
52189;DHT22;38162;45.926;13.608;2023-04-24T02:31:42;15.80;92.40
52189;DHT22;38162;45.926;13.608;2023-04-24T02:34:08;15.80;92.30
52189;DHT22;38162;45.926;13.608;2023-04-24T02:36:33;15.80;92.30
52189;DHT22;38162;45.926;13.608;2023-04-24T02:38:59;15.80;92.10
52189;DHT22;38162;45.926;13.608;2023-04-24T02:41:26;15.80;92.20
52189;DHT22;38162;45.926;13.608;2023-04-24T02:43:57;15.80;92.00
52189;DHT22;38162;45.926;13.608;2023-04-24T02:46:23;15.80;91.70
52189;DHT22;38162;45.926;13.608;2023-04-24T02:48:49;15.80;91.70
52189;DHT22;38162;45.926;13.608;2023-04-24T02:51:15;15.80;92.00
52189;DHT22;38162;45.926;13.608;2023-04-24T02:53:40;15.80;92.50
52189;DHT22;38162;45.926;13.608;2023-04-24T02:56:06;15.80;92.60
52189;DHT22;38162;45.926;13.608;2023-04-24T02:58:32;15.70;92.50
52189;DHT22;38162;45.926;13.608;2023-04-24T03:00:57;15.80;92.70
52189;DHT22;38162;45.926;13.608;2023-04-24T03:03:23;15.70;93.00
52189;DHT22;38162;45.926;13.608;2023-04-24T03:05:49;15.70;92.70
52189;DHT22;38162;45.926;13.608;2023-04-24T03:08:15;15.70;92.70
52189;DHT22;38162;45.926;13.608;2023-04-24T03:10:41;15.70;92.70
52189;DHT22;38162;45.926;13.608;2023-04-24T03:13:07;15.70;92.80
52189;DHT22;38162;45.926;13.608;2023-04-24T03:15:32;15.70;92.70
52189;DHT22;38162;45.926;13.608;2023-04-24T03:17:58;15.70;92.60
52189;DHT22;38162;45.926;13.608;2023-04-24T03:20:24;15.70;92.80
52189;DHT22;38162;45.926;13.608;2023-04-24T03:22:50;15.70;92.80
52189;DHT22;38162;45.926;13.608;2023-04-24T03:25:15;15.70;93.20
52189;DHT22;38162;45.926;13.608;2023-04-24T03:27:41;15.60;93.20
52189;DHT22;38162;45.926;13.608;2023-04-24T03:30:08;15.60;93.40
52189;DHT22;38162;45.926;13.608;2023-04-24T03:32:33;15.60;93.30
52189;DHT22;38162;45.926;13.608;2023-04-24T03:34:59;15.60;93.20
52189;DHT22;38162;45.926;13.608;2023-04-24T03:37:26;15.60;93.20
52189;DHT22;38162;45.926;13.608;2023-04-24T03:39:52;15.60;92.90
52189;DHT22;38162;45.926;13.608;2023-04-24T03:42:18;15.60;93.00
52189;DHT22;38162;45.926;13.608;2023-04-24T03:44:44;15.70;92.90
52189;DHT22;38162;45.926;13.608;2023-04-24T03:47:09;15.60;92.90
52189;DHT22;38162;45.926;13.608;2023-04-24T03:49:35;15.60;92.90
52189;DHT22;38162;45.926;13.608;2023-04-24T03:52:01;15.60;92.80
52189;DHT22;38162;45.926;13.608;2023-04-24T03:54:27;15.60;93.00
52189;DHT22;38162;45.926;13.608;2023-04-24T03:56:53;15.50;93.20
52189;DHT22;38162;45.926;13.608;2023-04-24T03:59:19;15.50;93.40
52189;DHT22;38162;45.926;13.608;2023-04-24T04:01:45;15.50;93.40
52189;DHT22;38162;45.926;13.608;2023-04-24T04:04:11;15.50;93.40
52189;DHT22;38162;45.926;13.608;2023-04-24T04:06:37;15.50;93.20
52189;DHT22;38162;45.926;13.608;2023-04-24T04:09:03;15.50;93.00
52189;DHT22;38162;45.926;13.608;2023-04-24T04:11:29;15.50;93.40
52189;DHT22;38162;45.926;13.608;2023-04-24T04:13:55;15.50;93.60
52189;DHT22;38162;45.926;13.608;2023-04-24T04:16:22;15.50;93.60
52189;DHT22;38162;45.926;13.608;2023-04-24T04:18:48;15.50;93.70
52189;DHT22;38162;45.926;13.608;2023-04-24T04:21:14;15.50;93.60
52189;DHT22;38162;45.926;13.608;2023-04-24T04:23:40;15.50;93.70
52189;DHT22;38162;45.926;13.608;2023-04-24T04:26:06;15.50;93.70
52189;DHT22;38162;45.926;13.608;2023-04-24T04:28:32;15.50;93.60
52189;DHT22;38162;45.926;13.608;2023-04-24T04:30:58;15.50;93.50
52189;DHT22;38162;45.926;13.608;2023-04-24T04:33:24;15.40;93.40
52189;DHT22;38162;45.926;13.608;2023-04-24T04:35:50;15.50;93.40
52189;DHT22;38162;45.926;13.608;2023-04-24T04:38:22;15.50;93.60
52189;DHT22;38162;45.926;13.608;2023-04-24T04:40:48;15.50;93.50
52189;DHT22;38162;45.926;13.608;2023-04-24T04:43:14;15.40;93.60
52189;DHT22;38162;45.926;13.608;2023-04-24T04:45:41;15.50;93.60
52189;DHT22;38162;45.926;13.608;2023-04-24T04:48:08;15.50;93.50
52189;DHT22;38162;45.926;13.608;2023-04-24T04:50:35;15.40;93.80
52189;DHT22;38162;45.926;13.608;2023-04-24T04:53:01;15.40;93.60
52189;DHT22;38162;45.926;13.608;2023-04-24T04:55:27;15.40;93.90
52189;DHT22;38162;45.926;13.608;2023-04-24T04:57:52;15.40;93.80
52189;DHT22;38162;45.926;13.608;2023-04-24T05:00:18;15.40;93.70
52189;DHT22;38162;45.926;13.608;2023-04-24T05:02:44;15.40;94.00
52189;DHT22;38162;45.926;13.608;2023-04-24T05:05:10;15.40;93.50
52189;DHT22;38162;45.926;13.608;2023-04-24T05:07:36;15.40;93.40
52189;DHT22;38162;45.926;13.608;2023-04-24T05:10:02;15.40;93.60
52189;DHT22;38162;45.926;13.608;2023-04-24T05:12:28;15.40;93.50
52189;DHT22;38162;45.926;13.608;2023-04-24T05:14:54;15.40;93.40
52189;DHT22;38162;45.926;13.608;2023-04-24T05:17:19;15.40;93.30
52189;DHT22;38162;45.926;13.608;2023-04-24T05:19:45;15.40;93.30
52189;DHT22;38162;45.926;13.608;2023-04-24T05:22:11;15.40;93.20
52189;DHT22;38162;45.926;13.608;2023-04-24T05:24:37;15.40;93.20
52189;DHT22;38162;45.926;13.608;2023-04-24T05:27:04;15.50;93.20
52189;DHT22;38162;45.926;13.608;2023-04-24T05:29:33;15.40;93.10
52189;DHT22;38162;45.926;13.608;2023-04-24T05:31:59;15.40;93.30
52189;DHT22;38162;45.926;13.608;2023-04-24T05:34:25;15.40;93.70
52189;DHT22;38162;45.926;13.608;2023-04-24T05:36:51;15.40;93.70
52189;DHT22;38162;45.926;13.608;2023-04-24T05:39:17;15.40;93.50
52189;DHT22;38162;45.926;13.608;2023-04-24T05:41:43;15.40;93.30
52189;DHT22;38162;45.926;13.608;2023-04-24T05:44:09;15.50;93.00
52189;DHT22;38162;45.926;13.608;2023-04-24T05:46:35;15.50;92.50
52189;DHT22;38162;45.926;13.608;2023-04-24T05:49:01;15.50;92.40
52189;DHT22;38162;45.926;13.608;2023-04-24T05:51:27;15.50;92.10
52189;DHT22;38162;45.926;13.608;2023-04-24T05:53:53;15.60;92.10
52189;DHT22;38162;45.926;13.608;2023-04-24T05:56:19;15.50;91.90
52189;DHT22;38162;45.926;13.608;2023-04-24T05:58:46;15.60;91.70
52189;DHT22;38162;45.926;13.608;2023-04-24T06:01:12;15.60;91.40
52189;DHT22;38162;45.926;13.608;2023-04-24T06:03:41;15.60;91.40
52189;DHT22;38162;45.926;13.608;2023-04-24T06:06:07;15.70;91.70
52189;DHT22;38162;45.926;13.608;2023-04-24T06:08:33;15.70;91.70
52189;DHT22;38162;45.926;13.608;2023-04-24T06:10:59;15.70;91.90
52189;DHT22;38162;45.926;13.608;2023-04-24T06:13:25;15.70;92.20
52189;DHT22;38162;45.926;13.608;2023-04-24T06:15:52;15.60;93.00
52189;DHT22;38162;45.926;13.608;2023-04-24T06:18:18;15.60;93.60
52189;DHT22;38162;45.926;13.608;2023-04-24T06:20:44;15.50;93.70
52189;DHT22;38162;45.926;13.608;2023-04-24T06:23:11;15.50;93.70
52189;DHT22;38162;45.926;13.608;2023-04-24T06:25:37;15.50;93.80
52189;DHT22;38162;45.926;13.608;2023-04-24T06:28:03;15.50;94.40
52189;DHT22;38162;45.926;13.608;2023-04-24T06:30:29;15.50;94.30
52189;DHT22;38162;45.926;13.608;2023-04-24T06:32:55;15.50;94.40
52189;DHT22;38162;45.926;13.608;2023-04-24T06:35:21;15.40;94.50
52189;DHT22;38162;45.926;13.608;2023-04-24T06:37:46;15.50;94.60
52189;DHT22;38162;45.926;13.608;2023-04-24T06:40:12;15.40;94.90
52189;DHT22;38162;45.926;13.608;2023-04-24T06:42:38;15.50;95.00
52189;DHT22;38162;45.926;13.608;2023-04-24T06:45:04;15.50;95.30
52189;DHT22;38162;45.926;13.608;2023-04-24T06:47:31;15.50;95.40
52189;DHT22;38162;45.926;13.608;2023-04-24T06:49:58;15.40;95.60
52189;DHT22;38162;45.926;13.608;2023-04-24T06:52:24;15.40;96.10
52189;DHT22;38162;45.926;13.608;2023-04-24T06:54:50;15.30;96.70
52189;DHT22;38162;45.926;13.608;2023-04-24T06:57:17;15.30;96.90
52189;DHT22;38162;45.926;13.608;2023-04-24T06:59:43;15.20;97.10
52189;DHT22;38162;45.926;13.608;2023-04-24T07:02:09;15.10;97.20
52189;DHT22;38162;45.926;13.608;2023-04-24T07:04:36;15.10;97.50
52189;DHT22;38162;45.926;13.608;2023-04-24T07:07:02;15.10;98.00
52189;DHT22;38162;45.926;13.608;2023-04-24T07:09:29;15.00;98.10
52189;DHT22;38162;45.926;13.608;2023-04-24T07:11:55;15.10;98.50
52189;DHT22;38162;45.926;13.608;2023-04-24T07:14:22;15.00;98.30
52189;DHT22;38162;45.926;13.608;2023-04-24T07:16:48;15.10;98.30
52189;DHT22;38162;45.926;13.608;2023-04-24T07:19:14;15.10;98.20
52189;DHT22;38162;45.926;13.608;2023-04-24T07:21:40;15.10;98.10
52189;DHT22;38162;45.926;13.608;2023-04-24T07:24:06;15.00;98.20
52189;DHT22;38162;45.926;13.608;2023-04-24T07:26:37;15.10;98.40
52189;DHT22;38162;45.926;13.608;2023-04-24T07:29:03;15.00;98.40
52189;DHT22;38162;45.926;13.608;2023-04-24T07:31:28;15.00;98.70
52189;DHT22;38162;45.926;13.608;2023-04-24T07:33:54;15.00;98.80
52189;DHT22;38162;45.926;13.608;2023-04-24T07:36:23;14.90;98.90
52189;DHT22;38162;45.926;13.608;2023-04-24T07:38:49;14.90;99.00
52189;DHT22;38162;45.926;13.608;2023-04-24T07:41:15;14.90;99.10
52189;DHT22;38162;45.926;13.608;2023-04-24T07:43:41;14.90;99.00
52189;DHT22;38162;45.926;13.608;2023-04-24T07:46:08;14.90;99.00
52189;DHT22;38162;45.926;13.608;2023-04-24T07:48:34;14.90;99.00
52189;DHT22;38162;45.926;13.608;2023-04-24T07:51:00;14.90;99.00
52189;DHT22;38162;45.926;13.608;2023-04-24T07:53:26;14.90;99.30
52189;DHT22;38162;45.926;13.608;2023-04-24T07:55:52;14.90;99.50
52189;DHT22;38162;45.926;13.608;2023-04-24T07:58:19;14.90;99.40
52189;DHT22;38162;45.926;13.608;2023-04-24T08:00:45;14.90;99.40
52189;DHT22;38162;45.926;13.608;2023-04-24T08:03:10;15.00;99.30
52189;DHT22;38162;45.926;13.608;2023-04-24T08:05:38;15.00;99.30
52189;DHT22;38162;45.926;13.608;2023-04-24T08:08:03;15.00;99.40
52189;DHT22;38162;45.926;13.608;2023-04-24T08:10:29;15.00;99.40
52189;DHT22;38162;45.926;13.608;2023-04-24T08:12:55;14.90;99.50
52189;DHT22;38162;45.926;13.608;2023-04-24T08:15:21;14.90;99.70
52189;DHT22;38162;45.926;13.608;2023-04-24T08:17:46;14.90;99.80
52189;DHT22;38162;45.926;13.608;2023-04-24T08:20:12;14.80;99.90
52189;DHT22;38162;45.926;13.608;2023-04-24T08:22:42;14.80;99.90
52189;DHT22;38162;45.926;13.608;2023-04-24T08:25:09;14.80;99.90
52189;DHT22;38162;45.926;13.608;2023-04-24T08:27:35;14.80;99.90
52189;DHT22;38162;45.926;13.608;2023-04-24T08:30:02;14.80;99.90
52189;DHT22;38162;45.926;13.608;2023-04-24T08:32:28;14.80;99.90
52189;DHT22;38162;45.926;13.608;2023-04-24T08:34:55;14.80;99.90
52189;DHT22;38162;45.926;13.608;2023-04-24T08:37:22;14.80;99.90
52189;DHT22;38162;45.926;13.608;2023-04-24T08:39:49;14.80;99.90
52189;DHT22;38162;45.926;13.608;2023-04-24T08:42:16;14.80;99.90
52189;DHT22;38162;45.926;13.608;2023-04-24T08:44:44;14.80;99.90
52189;DHT22;38162;45.926;13.608;2023-04-24T08:47:11;14.90;99.90
52189;DHT22;38162;45.926;13.608;2023-04-24T08:49:37;14.80;99.90
52189;DHT22;38162;45.926;13.608;2023-04-24T08:52:05;14.80;99.90
52189;DHT22;38162;45.926;13.608;2023-04-24T08:54:33;14.80;99.90
52189;DHT22;38162;45.926;13.608;2023-04-24T08:57:00;14.80;99.90
52189;DHT22;38162;45.926;13.608;2023-04-24T08:59:32;14.80;99.90
52189;DHT22;38162;45.926;13.608;2023-04-24T09:02:00;14.80;99.90
52189;DHT22;38162;45.926;13.608;2023-04-24T09:04:25;14.80;99.90
52189;DHT22;38162;45.926;13.608;2023-04-24T09:06:56;14.80;99.90
52189;DHT22;38162;45.926;13.608;2023-04-24T09:09:23;14.80;99.90
52189;DHT22;38162;45.926;13.608;2023-04-24T09:11:50;14.80;99.90
52189;DHT22;38162;45.926;13.608;2023-04-24T09:14:19;14.80;99.90
52189;DHT22;38162;45.926;13.608;2023-04-24T09:16:46;14.80;99.90
52189;DHT22;38162;45.926;13.608;2023-04-24T09:19:12;14.80;99.90
52189;DHT22;38162;45.926;13.608;2023-04-24T09:21:38;14.80;99.90
52189;DHT22;38162;45.926;13.608;2023-04-24T09:24:14;14.70;99.90
52189;DHT22;38162;45.926;13.608;2023-04-24T09:26:40;14.70;99.90
52189;DHT22;38162;45.926;13.608;2023-04-24T09:29:06;14.80;99.90
52189;DHT22;38162;45.926;13.608;2023-04-24T09:31:31;14.70;99.90
52189;DHT22;38162;45.926;13.608;2023-04-24T09:34:03;14.70;99.90
52189;DHT22;38162;45.926;13.608;2023-04-24T09:36:39;14.70;99.90
52189;DHT22;38162;45.926;13.608;2023-04-24T09:39:06;14.70;99.90
52189;DHT22;38162;45.926;13.608;2023-04-24T09:44:15;14.70;99.90
52189;DHT22;38162;45.926;13.608;2023-04-24T09:46:42;14.70;99.90
52189;DHT22;38162;45.926;13.608;2023-04-24T09:49:13;14.70;99.90
52189;DHT22;38162;45.926;13.608;2023-04-24T09:51:39;14.80;99.90
52189;DHT22;38162;45.926;13.608;2023-04-24T09:54:22;14.80;99.90
52189;DHT22;38162;45.926;13.608;2023-04-24T09:56:50;14.80;99.90
52189;DHT22;38162;45.926;13.608;2023-04-24T09:59:18;14.80;99.90
52189;DHT22;38162;45.926;13.608;2023-04-24T10:01:44;14.90;99.90
52189;DHT22;38162;45.926;13.608;2023-04-24T10:04:19;14.90;99.90
52189;DHT22;38162;45.926;13.608;2023-04-24T10:06:47;14.90;99.90
52189;DHT22;38162;45.926;13.608;2023-04-24T10:09:18;14.90;99.90
52189;DHT22;38162;45.926;13.608;2023-04-24T10:11:46;15.00;99.90
52189;DHT22;38162;45.926;13.608;2023-04-24T10:14:14;14.90;99.90
52189;DHT22;38162;45.926;13.608;2023-04-24T10:16:40;15.00;99.90
52189;DHT22;38162;45.926;13.608;2023-04-24T10:19:07;15.00;99.90
52189;DHT22;38162;45.926;13.608;2023-04-24T10:21:34;15.10;99.90
52189;DHT22;38162;45.926;13.608;2023-04-24T10:24:01;15.10;99.90
52189;DHT22;38162;45.926;13.608;2023-04-24T10:26:29;15.10;99.90
52189;DHT22;38162;45.926;13.608;2023-04-24T10:28:57;15.20;99.90
52189;DHT22;38162;45.926;13.608;2023-04-24T10:31:23;15.10;99.90
52189;DHT22;38162;45.926;13.608;2023-04-24T10:33:50;15.20;99.90
52189;DHT22;38162;45.926;13.608;2023-04-24T10:36:17;15.20;99.90
52189;DHT22;38162;45.926;13.608;2023-04-24T10:38:46;15.20;99.90
52189;DHT22;38162;45.926;13.608;2023-04-24T10:41:12;15.20;99.90
52189;DHT22;38162;45.926;13.608;2023-04-24T10:43:45;15.20;99.90
52189;DHT22;38162;45.926;13.608;2023-04-24T10:46:19;15.20;99.90
52189;DHT22;38162;45.926;13.608;2023-04-24T10:48:55;15.20;99.90
52189;DHT22;38162;45.926;13.608;2023-04-24T10:51:23;15.20;99.90
52189;DHT22;38162;45.926;13.608;2023-04-24T10:53:52;15.20;99.90
52189;DHT22;38162;45.926;13.608;2023-04-24T10:56:18;15.30;99.90
52189;DHT22;38162;45.926;13.608;2023-04-24T10:58:50;15.20;99.90
52189;DHT22;38162;45.926;13.608;2023-04-24T11:01:30;15.20;99.90
52189;DHT22;38162;45.926;13.608;2023-04-24T11:03:59;15.10;99.90
52189;DHT22;38162;45.926;13.608;2023-04-24T11:06:35;15.10;99.90
52189;DHT22;38162;45.926;13.608;2023-04-24T11:09:20;15.10;99.90
52189;DHT22;38162;45.926;13.608;2023-04-24T11:11:46;15.10;99.90
52189;DHT22;38162;45.926;13.608;2023-04-24T11:14:16;15.10;99.90
52189;DHT22;38162;45.926;13.608;2023-04-24T11:16:44;15.10;99.90
52189;DHT22;38162;45.926;13.608;2023-04-24T11:21:44;15.10;99.90
52189;DHT22;38162;45.926;13.608;2023-04-24T11:32:29;15.20;99.90
52189;DHT22;38162;45.926;13.608;2023-04-24T11:35:00;15.20;99.90
52189;DHT22;38162;45.926;13.608;2023-04-24T11:37:37;15.20;99.90
52189;DHT22;38162;45.926;13.608;2023-04-24T11:40:05;15.20;99.90
52189;DHT22;38162;45.926;13.608;2023-04-24T11:42:38;15.20;99.90
52189;DHT22;38162;45.926;13.608;2023-04-24T11:45:07;15.20;99.90
52189;DHT22;38162;45.926;13.608;2023-04-24T11:47:33;15.20;99.90
52189;DHT22;38162;45.926;13.608;2023-04-24T11:50:00;15.20;99.90
52189;DHT22;38162;45.926;13.608;2023-04-24T11:52:27;15.20;99.90
52189;DHT22;38162;45.926;13.608;2023-04-24T11:54:53;15.20;99.90
52189;DHT22;38162;45.926;13.608;2023-04-24T11:57:23;15.30;99.90
52189;DHT22;38162;45.926;13.608;2023-04-24T11:59:51;15.30;99.90
52189;DHT22;38162;45.926;13.608;2023-04-24T12:02:24;15.30;99.90
52189;DHT22;38162;45.926;13.608;2023-04-24T12:04:51;15.30;99.90
52189;DHT22;38162;45.926;13.608;2023-04-24T12:07:17;15.30;99.90
52189;DHT22;38162;45.926;13.608;2023-04-24T12:09:47;15.30;99.90
52189;DHT22;38162;45.926;13.608;2023-04-24T12:12:15;15.30;99.90
52189;DHT22;38162;45.926;13.608;2023-04-24T12:14:49;15.30;99.90
52189;DHT22;38162;45.926;13.608;2023-04-24T12:17:16;15.30;99.90
52189;DHT22;38162;45.926;13.608;2023-04-24T12:19:48;15.30;99.90
52189;DHT22;38162;45.926;13.608;2023-04-24T12:22:16;15.20;99.90
52189;DHT22;38162;45.926;13.608;2023-04-24T12:27:24;15.10;98.80
52189;DHT22;38162;45.926;13.608;2023-04-24T12:29:55;15.10;99.10
52189;DHT22;38162;45.926;13.608;2023-04-24T12:32:21;15.10;99.20
52189;DHT22;38162;45.926;13.608;2023-04-24T12:34:47;15.00;98.50
52189;DHT22;38162;45.926;13.608;2023-04-24T12:37:12;15.00;98.20
52189;DHT22;38162;45.926;13.608;2023-04-24T12:39:38;14.90;98.30
52189;DHT22;38162;45.926;13.608;2023-04-24T12:42:04;14.90;98.20
52189;DHT22;38162;45.926;13.608;2023-04-24T12:44:34;14.90;97.80
52189;DHT22;38162;45.926;13.608;2023-04-24T12:47:01;14.80;97.70
52189;DHT22;38162;45.926;13.608;2023-04-24T12:49:28;14.80;98.40
52189;DHT22;38162;45.926;13.608;2023-04-24T12:51:54;14.80;99.20
52189;DHT22;38162;45.926;13.608;2023-04-24T12:54:20;14.80;99.50
52189;DHT22;38162;45.926;13.608;2023-04-24T12:56:45;14.80;99.80
52189;DHT22;38162;45.926;13.608;2023-04-24T12:59:11;14.80;99.90
52189;DHT22;38162;45.926;13.608;2023-04-24T13:01:37;14.80;99.90
52189;DHT22;38162;45.926;13.608;2023-04-24T13:04:03;14.80;99.80
52189;DHT22;38162;45.926;13.608;2023-04-24T13:06:28;14.80;99.90
52189;DHT22;38162;45.926;13.608;2023-04-24T13:08:54;14.80;99.90
52189;DHT22;38162;45.926;13.608;2023-04-24T13:11:23;14.80;99.90
52189;DHT22;38162;45.926;13.608;2023-04-24T13:13:49;14.80;99.90
52189;DHT22;38162;45.926;13.608;2023-04-24T13:16:15;14.80;99.90
52189;DHT22;38162;45.926;13.608;2023-04-24T13:18:41;14.80;99.90
52189;DHT22;38162;45.926;13.608;2023-04-24T13:21:06;14.80;99.90
52189;DHT22;38162;45.926;13.608;2023-04-24T13:23:32;14.70;99.90
52189;DHT22;38162;45.926;13.608;2023-04-24T13:25:58;14.70;99.90
52189;DHT22;38162;45.926;13.608;2023-04-24T13:28:27;14.70;99.90
52189;DHT22;38162;45.926;13.608;2023-04-24T13:30:53;14.70;99.90
52189;DHT22;38162;45.926;13.608;2023-04-24T13:33:19;14.60;99.90
52189;DHT22;38162;45.926;13.608;2023-04-24T13:35:44;14.60;99.90
52189;DHT22;38162;45.926;13.608;2023-04-24T13:38:10;14.60;99.90
52189;DHT22;38162;45.926;13.608;2023-04-24T13:40:37;14.60;99.90
52189;DHT22;38162;45.926;13.608;2023-04-24T13:43:03;14.60;99.90
52189;DHT22;38162;45.926;13.608;2023-04-24T13:45:28;14.60;99.90
52189;DHT22;38162;45.926;13.608;2023-04-24T13:47:55;14.60;99.90
52189;DHT22;38162;45.926;13.608;2023-04-24T13:50:22;14.50;99.90
52189;DHT22;38162;45.926;13.608;2023-04-24T13:52:48;14.50;99.90
52189;DHT22;38162;45.926;13.608;2023-04-24T13:55:14;14.50;99.90
52189;DHT22;38162;45.926;13.608;2023-04-24T13:57:39;14.50;99.90
52189;DHT22;38162;45.926;13.608;2023-04-24T14:00:06;14.50;99.90
52189;DHT22;38162;45.926;13.608;2023-04-24T14:02:32;14.50;99.90
52189;DHT22;38162;45.926;13.608;2023-04-24T14:04:57;14.50;99.90
52189;DHT22;38162;45.926;13.608;2023-04-24T14:07:23;14.50;99.90
52189;DHT22;38162;45.926;13.608;2023-04-24T14:09:49;14.50;99.90
52189;DHT22;38162;45.926;13.608;2023-04-24T14:12:16;14.50;99.90
52189;DHT22;38162;45.926;13.608;2023-04-24T14:14:44;14.40;99.90
52189;DHT22;38162;45.926;13.608;2023-04-24T14:17:09;14.50;99.90
52189;DHT22;38162;45.926;13.608;2023-04-24T14:19:35;14.50;99.90
52189;DHT22;38162;45.926;13.608;2023-04-24T14:22:01;14.50;99.90
52189;DHT22;38162;45.926;13.608;2023-04-24T14:24:27;14.50;99.90
52189;DHT22;38162;45.926;13.608;2023-04-24T14:26:52;14.50;99.90
52189;DHT22;38162;45.926;13.608;2023-04-24T14:29:18;14.50;99.90
52189;DHT22;38162;45.926;13.608;2023-04-24T14:31:44;14.40;99.90
52189;DHT22;38162;45.926;13.608;2023-04-24T14:34:12;14.40;99.90
52189;DHT22;38162;45.926;13.608;2023-04-24T14:36:38;14.40;99.90
52189;DHT22;38162;45.926;13.608;2023-04-24T14:39:04;14.30;99.90
52189;DHT22;38162;45.926;13.608;2023-04-24T14:41:33;14.30;99.90
52189;DHT22;38162;45.926;13.608;2023-04-24T14:44:02;14.20;99.90
52189;DHT22;38162;45.926;13.608;2023-04-24T14:46:29;14.20;99.90
52189;DHT22;38162;45.926;13.608;2023-04-24T14:48:56;14.10;99.90
52189;DHT22;38162;45.926;13.608;2023-04-24T14:51:22;14.10;99.90
52189;DHT22;38162;45.926;13.608;2023-04-24T14:53:47;14.10;99.90
52189;DHT22;38162;45.926;13.608;2023-04-24T14:56:13;14.10;99.90
52189;DHT22;38162;45.926;13.608;2023-04-24T14:58:39;14.10;99.90
52189;DHT22;38162;45.926;13.608;2023-04-24T15:01:05;14.10;99.90
52189;DHT22;38162;45.926;13.608;2023-04-24T15:03:31;14.10;99.90
52189;DHT22;38162;45.926;13.608;2023-04-24T15:05:57;14.10;99.90
52189;DHT22;38162;45.926;13.608;2023-04-24T15:08:23;14.10;99.90
52189;DHT22;38162;45.926;13.608;2023-04-24T15:10:49;14.10;99.90
52189;DHT22;38162;45.926;13.608;2023-04-24T15:13:15;14.10;99.90
52189;DHT22;38162;45.926;13.608;2023-04-24T15:15:41;14.20;99.90
52189;DHT22;38162;45.926;13.608;2023-04-24T15:18:08;14.30;99.90
52189;DHT22;38162;45.926;13.608;2023-04-24T15:20:36;14.30;99.90
52189;DHT22;38162;45.926;13.608;2023-04-24T15:23:01;14.40;99.90
52189;DHT22;38162;45.926;13.608;2023-04-24T15:25:27;14.50;99.90
52189;DHT22;38162;45.926;13.608;2023-04-24T15:27:53;14.50;99.90